Eldon, Iowa
Current Conditions -  °F | °C
As of 12:15 PM on Sunday 25 Jan 2015 (Local Time) from KFFL Reporting Station
Haze Haze  
Wind Chill: 16°   Ceiling: Unl
Heat Index: 30°   Visibility: 4mi
Dew Point: 28°   Wind: 25mph
Humidity: 93%   Direction: 30°NNE
Pressure: 29.82"   Gusts: 35mph
Location:  40.92°N, 92.22°W
Report Text: KFFL 251815Z AUTO 03022G30KT 4SM BR SCT010 SCT014 M01/M02 A2982 RMK AO2
Loading
Personal Weather Stations






























Interactive Weather Map New forecast layout! Learn more

10-Day Weather Forecast

Advertisements
Track Severe Weather on mobile